sensor_id;sensor_type;location;lat;lon;timestamp;pressure;altitude;pressure_sealevel;temperature;humidity
8320;BME280;4197;42.130;24.746;2023-05-20T00:00:12;99716.94;;;14.24;100.00
8320;BME280;4197;42.130;24.746;2023-05-20T00:02:40;99718.94;;;14.27;100.00
8320;BME280;4197;42.130;24.746;2023-05-20T00:05:09;99718.91;;;14.23;100.00
8320;BME280;4197;42.130;24.746;2023-05-20T00:07:38;99717.34;;;14.22;100.00
8320;BME280;4197;42.130;24.746;2023-05-20T00:10:07;99716.50;;;14.18;100.00
8320;BME280;4197;42.130;24.746;2023-05-20T00:12:37;99711.72;;;14.08;100.00
8320;BME280;4197;42.130;24.746;2023-05-20T00:15:06;99713.25;;;14.05;100.00
8320;BME280;4197;42.130;24.746;2023-05-20T00:17:36;99718.97;;;13.97;100.00
8320;BME280;4197;42.130;24.746;2023-05-20T00:20:06;99708.84;;;13.97;100.00
8320;BME280;4197;42.130;24.746;2023-05-20T00:22:34;99707.53;;;13.88;100.00
8320;BME280;4197;42.130;24.746;2023-05-20T00:25:04;99703.56;;;13.81;100.00
8320;BME280;4197;42.130;24.746;2023-05-20T00:27:32;99705.88;;;13.79;100.00
8320;BME280;4197;42.130;24.746;2023-05-20T00:30:01;99707.78;;;13.75;100.00
8320;BME280;4197;42.130;24.746;2023-05-20T00:32:29;99703.81;;;13.69;100.00
8320;BME280;4197;42.130;24.746;2023-05-20T00:34:59;99695.69;;;13.73;100.00
8320;BME280;4197;42.130;24.746;2023-05-20T00:37:28;99696.47;;;13.73;100.00
8320;BME280;4197;42.130;24.746;2023-05-20T00:39:56;99702.22;;;13.68;100.00
8320;BME280;4197;42.130;24.746;2023-05-20T00:42:26;99697.09;;;13.63;100.00
8320;BME280;4197;42.130;24.746;2023-05-20T00:44:55;99699.81;;;13.63;100.00
8320;BME280;4197;42.130;24.746;2023-05-20T00:47:26;99697.16;;;13.67;100.00
8320;BME280;4197;42.130;24.746;2023-05-20T00:49:55;99693.63;;;13.66;100.00
8320;BME280;4197;42.130;24.746;2023-05-20T00:52:26;99693.22;;;13.64;100.00
8320;BME280;4197;42.130;24.746;2023-05-20T00:54:56;99692.81;;;13.62;100.00
8320;BME280;4197;42.130;24.746;2023-05-20T00:57:25;99697.47;;;13.61;100.00
8320;BME280;4197;42.130;24.746;2023-05-20T00:59:54;99697.44;;;13.58;100.00
8320;BME280;4197;42.130;24.746;2023-05-20T01:02:23;99690.81;;;13.59;100.00
8320;BME280;4197;42.130;24.746;2023-05-20T01:04:52;99691.13;;;13.54;100.00
8320;BME280;4197;42.130;24.746;2023-05-20T01:07:22;99675.56;;;13.54;100.00
8320;BME280;4197;42.130;24.746;2023-05-20T01:09:52;99684.13;;;13.53;100.00
8320;BME280;4197;42.130;24.746;2023-05-20T01:12:25;99687.50;;;13.46;100.00
8320;BME280;4197;42.130;24.746;2023-05-20T01:14:58;99681.66;;;13.44;100.00
8320;BME280;4197;42.130;24.746;2023-05-20T01:17:30;99679.72;;;13.45;100.00
8320;BME280;4197;42.130;24.746;2023-05-20T01:20:06;99680.84;;;13.44;100.00
8320;BME280;4197;42.130;24.746;2023-05-20T01:22:38;99677.34;;;13.43;100.00
8320;BME280;4197;42.130;24.746;2023-05-20T01:25:14;99678.94;;;13.44;100.00
8320;BME280;4197;42.130;24.746;2023-05-20T01:27:45;99675.00;;;13.42;100.00
8320;BME280;4197;42.130;24.746;2023-05-20T01:30:15;99682.72;;;13.36;100.00
8320;BME280;4197;42.130;24.746;2023-05-20T01:32:47;99685.06;;;13.37;100.00
8320;BME280;4197;42.130;24.746;2023-05-20T01:35:18;99678.03;;;13.36;100.00
8320;BME280;4197;42.130;24.746;2023-05-20T01:37:50;99681.81;;;13.28;100.00
8320;BME280;4197;42.130;24.746;2023-05-20T01:40:22;99678.69;;;13.30;100.00
8320;BME280;4197;42.130;24.746;2023-05-20T01:42:52;99681.72;;;13.25;100.00
8320;BME280;4197;42.130;24.746;2023-05-20T01:45:22;99683.97;;;13.19;100.00
8320;BME280;4197;42.130;24.746;2023-05-20T01:47:51;99688.69;;;13.22;100.00
8320;BME280;4197;42.130;24.746;2023-05-20T01:50:19;99679.25;;;13.16;100.00
8320;BME280;4197;42.130;24.746;2023-05-20T01:52:49;99672.97;;;13.12;100.00
8320;BME280;4197;42.130;24.746;2023-05-20T01:55:18;99669.88;;;13.13;100.00
8320;BME280;4197;42.130;24.746;2023-05-20T01:57:46;99676.78;;;13.07;100.00
8320;BME280;4197;42.130;24.746;2023-05-20T02:00:14;99662.69;;;13.02;100.00
8320;BME280;4197;42.130;24.746;2023-05-20T02:02:43;99664.19;;;12.99;100.00
8320;BME280;4197;42.130;24.746;2023-05-20T02:05:11;99665.84;;;13.04;100.00
8320;BME280;4197;42.130;24.746;2023-05-20T02:07:40;99669.78;;;13.06;100.00
8320;BME280;4197;42.130;24.746;2023-05-20T02:10:10;99659.63;;;13.03;100.00
8320;BME280;4197;42.130;24.746;2023-05-20T02:12:38;99659.97;;;13.02;100.00
8320;BME280;4197;42.130;24.746;2023-05-20T02:15:23;99651.78;;;13.02;100.00
8320;BME280;4197;42.130;24.746;2023-05-20T02:17:52;99639.69;;;12.99;100.00
8320;BME280;4197;42.130;24.746;2023-05-20T02:20:21;99641.94;;;12.93;100.00
8320;BME280;4197;42.130;24.746;2023-05-20T02:22:49;99643.47;;;12.91;100.00
8320;BME280;4197;42.130;24.746;2023-05-20T02:25:19;99644.91;;;12.85;100.00
8320;BME280;4197;42.130;24.746;2023-05-20T02:27:47;99646.88;;;12.84;100.00
8320;BME280;4197;42.130;24.746;2023-05-20T02:30:15;99647.16;;;12.79;100.00
8320;BME280;4197;42.130;24.746;2023-05-20T02:32:44;99650.25;;;12.78;100.00
8320;BME280;4197;42.130;24.746;2023-05-20T02:35:12;99653.00;;;12.78;100.00
8320;BME280;4197;42.130;24.746;2023-05-20T02:37:41;99645.53;;;12.75;100.00
8320;BME280;4197;42.130;24.746;2023-05-20T02:40:10;99648.63;;;12.73;100.00
8320;BME280;4197;42.130;24.746;2023-05-20T02:42:40;99646.63;;;12.70;100.00
8320;BME280;4197;42.130;24.746;2023-05-20T02:45:09;99643.47;;;12.68;100.00
8320;BME280;4197;42.130;24.746;2023-05-20T02:47:37;99641.19;;;12.70;100.00
8320;BME280;4197;42.130;24.746;2023-05-20T02:50:09;99642.69;;;12.67;100.00
8320;BME280;4197;42.130;24.746;2023-05-20T02:52:38;99652.84;;;12.70;100.00
8320;BME280;4197;42.130;24.746;2023-05-20T02:55:08;99647.41;;;12.70;100.00
8320;BME280;4197;42.130;24.746;2023-05-20T02:57:37;99643.91;;;12.70;100.00
8320;BME280;4197;42.130;24.746;2023-05-20T03:00:08;99648.88;;;12.64;100.00
8320;BME280;4197;42.130;24.746;2023-05-20T03:02:38;99653.53;;;12.64;100.00
8320;BME280;4197;42.130;24.746;2023-05-20T03:05:08;99652.22;;;12.58;100.00
8320;BME280;4197;42.130;24.746;2023-05-20T03:07:38;99660.28;;;12.50;100.00
8320;BME280;4197;42.130;24.746;2023-05-20T03:10:08;99655.75;;;12.58;100.00
8320;BME280;4197;42.130;24.746;2023-05-20T03:12:36;99656.31;;;12.67;100.00
8320;BME280;4197;42.130;24.746;2023-05-20T03:15:07;99660.16;;;12.66;100.00
8320;BME280;4197;42.130;24.746;2023-05-20T03:17:36;99653.59;;;12.67;100.00
8320;BME280;4197;42.130;24.746;2023-05-20T03:20:06;99657.56;;;12.73;100.00
8320;BME280;4197;42.130;24.746;2023-05-20T03:22:34;99660.34;;;12.77;100.00
8320;BME280;4197;42.130;24.746;2023-05-20T03:25:05;99664.50;;;12.71;100.00
8320;BME280;4197;42.130;24.746;2023-05-20T03:27:34;99666.75;;;12.65;100.00
8320;BME280;4197;42.130;24.746;2023-05-20T03:30:05;99687.06;;;12.71;100.00
8320;BME280;4197;42.130;24.746;2023-05-20T03:32:35;99688.66;;;12.72;100.00
8320;BME280;4197;42.130;24.746;2023-05-20T03:35:04;99711.72;;;12.59;100.00
8320;BME280;4197;42.130;24.746;2023-05-20T03:37:33;99725.56;;;12.50;100.00
8320;BME280;4197;42.130;24.746;2023-05-20T03:40:02;99725.19;;;12.52;100.00
8320;BME280;4197;42.130;24.746;2023-05-20T03:42:32;99722.56;;;12.56;100.00
8320;BME280;4197;42.130;24.746;2023-05-20T03:45:01;99719.66;;;12.68;100.00
8320;BME280;4197;42.130;24.746;2023-05-20T03:47:29;99718.59;;;12.95;100.00
8320;BME280;4197;42.130;24.746;2023-05-20T03:49:59;99727.72;;;13.07;100.00
8320;BME280;4197;42.130;24.746;2023-05-20T03:52:28;99733.91;;;13.27;100.00
8320;BME280;4197;42.130;24.746;2023-05-20T03:54:56;99717.69;;;13.34;100.00
8320;BME280;4197;42.130;24.746;2023-05-20T03:57:25;99716.97;;;13.37;100.00
8320;BME280;4197;42.130;24.746;2023-05-20T03:59:53;99718.38;;;13.54;100.00
8320;BME280;4197;42.130;24.746;2023-05-20T04:02:23;99704.47;;;13.63;100.00
8320;BME280;4197;42.130;24.746;2023-05-20T04:04:51;99712.69;;;13.66;100.00
8320;BME280;4197;42.130;24.746;2023-05-20T04:07:21;99715.31;;;13.86;100.00
8320;BME280;4197;42.130;24.746;2023-05-20T04:09:49;99719.53;;;14.13;100.00
8320;BME280;4197;42.130;24.746;2023-05-20T04:12:18;99729.19;;;14.37;100.00
8320;BME280;4197;42.130;24.746;2023-05-20T04:14:46;99728.41;;;14.37;100.00
8320;BME280;4197;42.130;24.746;2023-05-20T04:17:15;99718.56;;;14.28;100.00
8320;BME280;4197;42.130;24.746;2023-05-20T04:19:44;99723.94;;;14.21;100.00
8320;BME280;4197;42.130;24.746;2023-05-20T04:22:12;99720.66;;;14.39;100.00
8320;BME280;4197;42.130;24.746;2023-05-20T04:24:43;99713.72;;;14.48;100.00
8320;BME280;4197;42.130;24.746;2023-05-20T04:27:12;99713.13;;;14.62;100.00
8320;BME280;4197;42.130;24.746;2023-05-20T04:29:41;99720.09;;;14.60;100.00
8320;BME280;4197;42.130;24.746;2023-05-20T04:32:12;99714.06;;;14.77;100.00
8320;BME280;4197;42.130;24.746;2023-05-20T04:34:40;99712.56;;;14.87;100.00
8320;BME280;4197;42.130;24.746;2023-05-20T04:37:08;99712.97;;;15.37;100.00
8320;BME280;4197;42.130;24.746;2023-05-20T04:39:37;99709.91;;;15.42;100.00
8320;BME280;4197;42.130;24.746;2023-05-20T04:42:07;99712.28;;;15.47;100.00
8320;BME280;4197;42.130;24.746;2023-05-20T04:44:35;99713.91;;;15.55;100.00
8320;BME280;4197;42.130;24.746;2023-05-20T04:47:03;99725.78;;;15.77;100.00
8320;BME280;4197;42.130;24.746;2023-05-20T04:49:33;99717.25;;;15.93;100.00
8320;BME280;4197;42.130;24.746;2023-05-20T04:52:01;99730.91;;;15.90;100.00
8320;BME280;4197;42.130;24.746;2023-05-20T04:54:31;99727.13;;;16.12;100.00
8320;BME280;4197;42.130;24.746;2023-05-20T04:56:59;99731.09;;;16.25;100.00
8320;BME280;4197;42.130;24.746;2023-05-20T04:59:30;99724.53;;;16.59;100.00
8320;BME280;4197;42.130;24.746;2023-05-20T05:01:58;99734.25;;;16.42;100.00
8320;BME280;4197;42.130;24.746;2023-05-20T05:04:26;99728.06;;;16.56;100.00
8320;BME280;4197;42.130;24.746;2023-05-20T05:06:54;99734.31;;;16.60;100.00
8320;BME280;4197;42.130;24.746;2023-05-20T05:09:22;99724.63;;;16.84;100.00
8320;BME280;4197;42.130;24.746;2023-05-20T05:11:50;99734.81;;;17.08;100.00
8320;BME280;4197;42.130;24.746;2023-05-20T05:14:18;99734.00;;;17.04;100.00
8320;BME280;4197;42.130;24.746;2023-05-20T05:16:48;99737.53;;;17.26;100.00
8320;BME280;4197;42.130;24.746;2023-05-20T05:19:19;99729.72;;;17.39;100.00
8320;BME280;4197;42.130;24.746;2023-05-20T05:21:48;99729.31;;;17.51;100.00
8320;BME280;4197;42.130;24.746;2023-05-20T05:24:17;99728.91;;;17.85;100.00
8320;BME280;4197;42.130;24.746;2023-05-20T05:26:45;99738.59;;;18.18;100.00
8320;BME280;4197;42.130;24.746;2023-05-20T05:29:13;99725.19;;;18.35;100.00
8320;BME280;4197;42.130;24.746;2023-05-20T05:31:41;99726.72;;;18.39;100.00
8320;BME280;4197;42.130;24.746;2023-05-20T05:34:11;99738.47;;;18.40;98.26
8320;BME280;4197;42.130;24.746;2023-05-20T05:36:39;99740.66;;;18.77;95.38
8320;BME280;4197;42.130;24.746;2023-05-20T05:39:08;99744.63;;;18.62;95.73
8320;BME280;4197;42.130;24.746;2023-05-20T05:41:38;99735.94;;;18.78;95.32
8320;BME280;4197;42.130;24.746;2023-05-20T05:44:07;99740.72;;;18.63;98.40
8320;BME280;4197;42.130;24.746;2023-05-20T05:46:35;99741.41;;;18.85;95.92
8320;BME280;4197;42.130;24.746;2023-05-20T05:49:03;99745.91;;;19.13;92.79
8320;BME280;4197;42.130;24.746;2023-05-20T05:51:33;99732.78;;;19.31;90.89
8320;BME280;4197;42.130;24.746;2023-05-20T05:54:04;99728.44;;;19.34;90.03
8320;BME280;4197;42.130;24.746;2023-05-20T05:56:33;99720.75;;;19.59;88.53
8320;BME280;4197;42.130;24.746;2023-05-20T05:59:01;99719.44;;;19.75;87.43
8320;BME280;4197;42.130;24.746;2023-05-20T06:01:29;99720.69;;;20.04;84.59
8320;BME280;4197;42.130;24.746;2023-05-20T06:03:58;99721.34;;;20.16;82.42
8320;BME280;4197;42.130;24.746;2023-05-20T06:06:26;99722.56;;;20.11;83.01
8320;BME280;4197;42.130;24.746;2023-05-20T06:08:57;99724.91;;;20.13;81.33
8320;BME280;4197;42.130;24.746;2023-05-20T06:11:25;99732.25;;;20.23;81.15
8320;BME280;4197;42.130;24.746;2023-05-20T06:13:53;99726.22;;;20.35;80.40
8320;BME280;4197;42.130;24.746;2023-05-20T06:16:21;99722.69;;;20.31;83.36
8320;BME280;4197;42.130;24.746;2023-05-20T06:18:50;99721.06;;;20.37;80.79
8320;BME280;4197;42.130;24.746;2023-05-20T06:21:19;99717.84;;;20.42;80.14
8320;BME280;4197;42.130;24.746;2023-05-20T06:23:48;99715.28;;;20.28;81.90
8320;BME280;4197;42.130;24.746;2023-05-20T06:26:17;99719.88;;;20.38;83.66
8320;BME280;4197;42.130;24.746;2023-05-20T06:28:45;99719.47;;;20.40;83.47
8320;BME280;4197;42.130;24.746;2023-05-20T06:31:13;99718.63;;;20.43;80.02
8320;BME280;4197;42.130;24.746;2023-05-20T06:33:41;99727.31;;;20.41;77.37
8320;BME280;4197;42.130;24.746;2023-05-20T06:36:09;99718.31;;;20.37;80.04
8320;BME280;4197;42.130;24.746;2023-05-20T06:38:38;99720.25;;;20.40;77.90
8320;BME280;4197;42.130;24.746;2023-05-20T06:41:06;99713.78;;;20.50;78.18
8320;BME280;4197;42.130;24.746;2023-05-20T06:43:35;99707.38;;;20.61;75.09
8320;BME280;4197;42.130;24.746;2023-05-20T06:46:03;99710.44;;;20.66;72.81
8320;BME280;4197;42.130;24.746;2023-05-20T06:48:32;99709.28;;;20.67;71.91
8320;BME280;4197;42.130;24.746;2023-05-20T06:51:00;99698.91;;;20.75;71.01
8320;BME280;4197;42.130;24.746;2023-05-20T06:53:28;99706.00;;;20.76;71.69
8320;BME280;4197;42.130;24.746;2023-05-20T06:55:57;99710.25;;;20.81;71.04
8320;BME280;4197;42.130;24.746;2023-05-20T06:58:25;99704.78;;;20.77;72.58
8320;BME280;4197;42.130;24.746;2023-05-20T07:00:55;99698.81;;;20.82;73.10
8320;BME280;4197;42.130;24.746;2023-05-20T07:03:27;99703.72;;;20.94;72.24
8320;BME280;4197;42.130;24.746;2023-05-20T07:05:56;99700.63;;;20.92;70.28
8320;BME280;4197;42.130;24.746;2023-05-20T07:08:26;99705.31;;;20.96;69.24
8320;BME280;4197;42.130;24.746;2023-05-20T07:10:55;99711.59;;;20.96;70.44
8320;BME280;4197;42.130;24.746;2023-05-20T07:13:23;99713.09;;;21.01;70.54
8320;BME280;4197;42.130;24.746;2023-05-20T07:15:52;99717.41;;;21.25;69.30
8320;BME280;4197;42.130;24.746;2023-05-20T07:18:22;99720.06;;;21.32;67.55
8320;BME280;4197;42.130;24.746;2023-05-20T07:20:51;99717.72;;;21.07;68.58
8320;BME280;4197;42.130;24.746;2023-05-20T07:23:20;99719.53;;;21.17;70.11
8320;BME280;4197;42.130;24.746;2023-05-20T07:25:48;99715.09;;;21.24;68.65
8320;BME280;4197;42.130;24.746;2023-05-20T07:28:18;99711.13;;;21.25;68.81
8320;BME280;4197;42.130;24.746;2023-05-20T07:30:47;99709.63;;;21.44;66.32
8320;BME280;4197;42.130;24.746;2023-05-20T07:33:17;99714.69;;;21.49;64.72
8320;BME280;4197;42.130;24.746;2023-05-20T07:35:47;99723.38;;;21.47;63.88
8320;BME280;4197;42.130;24.746;2023-05-20T07:38:16;99720.38;;;21.38;66.93
8320;BME280;4197;42.130;24.746;2023-05-20T07:40:44;99726.41;;;21.53;66.46
8320;BME280;4197;42.130;24.746;2023-05-20T07:43:12;99728.22;;;21.63;64.74
8320;BME280;4197;42.130;24.746;2023-05-20T07:45:41;99719.16;;;21.63;63.89
8320;BME280;4197;42.130;24.746;2023-05-20T07:48:12;99724.88;;;21.52;63.25
8320;BME280;4197;42.130;24.746;2023-05-20T07:50:41;99719.84;;;21.67;62.29
8320;BME280;4197;42.130;24.746;2023-05-20T07:53:10;99718.75;;;21.84;61.16
8320;BME280;4197;42.130;24.746;2023-05-20T07:55:39;99723.00;;;21.89;60.20
8320;BME280;4197;42.130;24.746;2023-05-20T07:58:07;99721.31;;;22.15;59.75
8320;BME280;4197;42.130;24.746;2023-05-20T08:00:36;99715.44;;;22.33;61.36
8320;BME280;4197;42.130;24.746;2023-05-20T08:03:04;99722.91;;;22.52;60.36
8320;BME280;4197;42.130;24.746;2023-05-20T08:05:35;99704.72;;;22.71;60.64
8320;BME280;4197;42.130;24.746;2023-05-20T08:08:04;99695.66;;;22.70;59.61
8320;BME280;4197;42.130;24.746;2023-05-20T08:10:33;99714.78;;;22.61;60.80
8320;BME280;4197;42.130;24.746;2023-05-20T08:13:02;99704.44;;;22.65;58.93
8320;BME280;4197;42.130;24.746;2023-05-20T08:15:30;99701.69;;;22.82;59.68
8320;BME280;4197;42.130;24.746;2023-05-20T08:17:58;99706.22;;;23.08;59.66
8320;BME280;4197;42.130;24.746;2023-05-20T08:20:28;99708.09;;;23.28;58.75
8320;BME280;4197;42.130;24.746;2023-05-20T08:22:56;99714.06;;;23.43;58.61
8320;BME280;4197;42.130;24.746;2023-05-20T08:25:25;99705.44;;;23.70;55.86
8320;BME280;4197;42.130;24.746;2023-05-20T08:27:54;99695.50;;;23.72;54.86
8320;BME280;4197;42.130;24.746;2023-05-20T08:30:22;99690.63;;;23.76;55.98
8320;BME280;4197;42.130;24.746;2023-05-20T08:32:50;99690.75;;;23.86;54.25
8320;BME280;4197;42.130;24.746;2023-05-20T08:35:19;99700.00;;;23.95;54.59
8320;BME280;4197;42.130;24.746;2023-05-20T08:37:50;99685.63;;;24.13;53.42
8320;BME280;4197;42.130;24.746;2023-05-20T08:40:20;99700.41;;;24.23;54.42
8320;BME280;4197;42.130;24.746;2023-05-20T08:42:49;99706.09;;;24.45;53.53
8320;BME280;4197;42.130;24.746;2023-05-20T08:45:20;99703.66;;;24.60;53.91
8320;BME280;4197;42.130;24.746;2023-05-20T08:47:52;99705.22;;;24.48;49.62
8320;BME280;4197;42.130;24.746;2023-05-20T08:50:20;99696.75;;;23.84;53.52
8320;BME280;4197;42.130;24.746;2023-05-20T08:52:48;99705.13;;;24.10;50.77
8320;BME280;4197;42.130;24.746;2023-05-20T08:55:22;99703.69;;;23.30;54.16
8320;BME280;4197;42.130;24.746;2023-05-20T08:57:53;99697.22;;;23.04;55.09
8320;BME280;4197;42.130;24.746;2023-05-20T09:00:23;99695.19;;;23.54;55.54
8320;BME280;4197;42.130;24.746;2023-05-20T09:02:54;99692.47;;;23.96;54.47
8320;BME280;4197;42.130;24.746;2023-05-20T09:05:26;99694.63;;;24.30;52.77
8320;BME280;4197;42.130;24.746;2023-05-20T09:08:03;99696.50;;;24.20;53.10
8320;BME280;4197;42.130;24.746;2023-05-20T09:10:33;99685.88;;;23.77;51.53
8320;BME280;4197;42.130;24.746;2023-05-20T09:13:02;99696.28;;;24.15;52.55
8320;BME280;4197;42.130;24.746;2023-05-20T09:15:33;99694.00;;;23.84;50.81
8320;BME280;4197;42.130;24.746;2023-05-20T09:18:03;99692.06;;;23.52;52.38
8320;BME280;4197;42.130;24.746;2023-05-20T09:20:33;99690.72;;;23.11;53.29
8320;BME280;4197;42.130;24.746;2023-05-20T09:23:04;99692.78;;;22.90;54.60
8320;BME280;4197;42.130;24.746;2023-05-20T09:25:34;99691.56;;;22.75;56.60
8320;BME280;4197;42.130;24.746;2023-05-20T09:28:03;99687.16;;;22.61;57.97
8320;BME280;4197;42.130;24.746;2023-05-20T09:30:33;99686.91;;;22.72;56.96
8320;BME280;4197;42.130;24.746;2023-05-20T09:33:03;99681.13;;;22.83;58.82
8320;BME280;4197;42.130;24.746;2023-05-20T09:35:35;99689.34;;;23.19;59.94
8320;BME280;4197;42.130;24.746;2023-05-20T09:38:05;99689.00;;;23.63;56.70
8320;BME280;4197;42.130;24.746;2023-05-20T09:40:33;99701.41;;;23.42;56.38
8320;BME280;4197;42.130;24.746;2023-05-20T09:43:04;99687.56;;;23.12;57.60
8320;BME280;4197;42.130;24.746;2023-05-20T09:45:35;99686.28;;;23.01;59.56
8320;BME280;4197;42.130;24.746;2023-05-20T09:48:04;99672.91;;;23.45;57.63
8320;BME280;4197;42.130;24.746;2023-05-20T09:50:36;99670.31;;;23.37;55.99
8320;BME280;4197;42.130;24.746;2023-05-20T09:53:05;99663.03;;;23.44;56.15
8320;BME280;4197;42.130;24.746;2023-05-20T09:55:34;99667.50;;;23.54;55.73
8320;BME280;4197;42.130;24.746;2023-05-20T09:58:03;99660.09;;;23.64;53.84
8320;BME280;4197;42.130;24.746;2023-05-20T10:00:32;99660.94;;;23.77;56.45
8320;BME280;4197;42.130;24.746;2023-05-20T10:03:02;99664.47;;;24.32;55.98
8320;BME280;4197;42.130;24.746;2023-05-20T10:05:35;99666.72;;;24.37;53.80
8320;BME280;4197;42.130;24.746;2023-05-20T10:08:26;99647.50;;;24.04;55.80
8320;BME280;4197;42.130;24.746;2023-05-20T10:11:11;99657.63;;;24.37;54.89
8320;BME280;4197;42.130;24.746;2023-05-20T10:13:57;99648.63;;;24.20;56.69
8320;BME280;4197;42.130;24.746;2023-05-20T10:16:35;99656.72;;;24.14;54.94
8320;BME280;4197;42.130;24.746;2023-05-20T10:19:25;99654.91;;;23.66;57.00
8320;BME280;4197;42.130;24.746;2023-05-20T10:21:57;99652.69;;;24.02;58.56
8320;BME280;4197;42.130;24.746;2023-05-20T10:24:30;99660.06;;;24.60;56.54
8320;BME280;4197;42.130;24.746;2023-05-20T10:27:00;99650.25;;;24.94;54.40
8320;BME280;4197;42.130;24.746;2023-05-20T10:29:40;99662.16;;;24.69;53.54
8320;BME280;4197;42.130;24.746;2023-05-20T10:32:09;99660.47;;;24.08;55.82
8320;BME280;4197;42.130;24.746;2023-05-20T10:34:46;99669.63;;;23.63;51.90
8320;BME280;4197;42.130;24.746;2023-05-20T10:37:26;99656.22;;;23.32;47.99
8320;BME280;4197;42.130;24.746;2023-05-20T10:40:07;99662.25;;;23.43;47.59
8320;BME280;4197;42.130;24.746;2023-05-20T10:42:36;99653.56;;;23.87;47.32
8320;BME280;4197;42.130;24.746;2023-05-20T10:45:06;99669.06;;;23.84;45.96
8320;BME280;4197;42.130;24.746;2023-05-20T10:47:35;99658.00;;;23.84;46.43
8320;BME280;4197;42.130;24.746;2023-05-20T10:50:06;99657.19;;;23.54;48.44
8320;BME280;4197;42.130;24.746;2023-05-20T10:52:35;99658.91;;;23.19;52.67
8320;BME280;4197;42.130;24.746;2023-05-20T10:55:05;99660.22;;;22.65;55.10
8320;BME280;4197;42.130;24.746;2023-05-20T10:57:34;99667.91;;;22.74;56.20
8320;BME280;4197;42.130;24.746;2023-05-20T11:00:03;99658.13;;;22.86;56.52
8320;BME280;4197;42.130;24.746;2023-05-20T11:02:36;99672.84;;;22.83;53.46
8320;BME280;4197;42.130;24.746;2023-05-20T11:05:10;99674.41;;;22.67;55.88
8320;BME280;4197;42.130;24.746;2023-05-20T11:07:38;99663.50;;;22.60;55.83
8320;BME280;4197;42.130;24.746;2023-05-20T11:10:07;99651.75;;;22.56;54.82
8320;BME280;4197;42.130;24.746;2023-05-20T11:12:37;99657.31;;;22.20;55.55
8320;BME280;4197;42.130;24.746;2023-05-20T11:15:07;99658.97;;;22.14;56.42
8320;BME280;4197;42.130;24.746;2023-05-20T11:17:50;99667.56;;;22.19;53.77
8320;BME280;4197;42.130;24.746;2023-05-20T11:20:21;99657.16;;;22.07;55.60
8320;BME280;4197;42.130;24.746;2023-05-20T11:22:50;99657.66;;;21.82;57.12
8320;BME280;4197;42.130;24.746;2023-05-20T11:25:19;99654.97;;;21.98;57.36
8320;BME280;4197;42.130;24.746;2023-05-20T11:27:49;99656.72;;;22.09;56.51
8320;BME280;4197;42.130;24.746;2023-05-20T11:30:17;99646.28;;;22.16;57.22
8320;BME280;4197;42.130;24.746;2023-05-20T11:32:55;99646.13;;;21.87;58.53
8320;BME280;4197;42.130;24.746;2023-05-20T11:35:26;99645.91;;;22.18;56.27
8320;BME280;4197;42.130;24.746;2023-05-20T11:37:56;99645.69;;;22.29;55.77
8320;BME280;4197;42.130;24.746;2023-05-20T11:40:25;99638.59;;;22.44;55.85
8320;BME280;4197;42.130;24.746;2023-05-20T11:43:04;99639.06;;;22.59;55.84
8320;BME280;4197;42.130;24.746;2023-05-20T11:45:38;99640.50;;;22.47;53.97
8320;BME280;4197;42.130;24.746;2023-05-20T11:48:07;99633.06;;;22.44;56.12
8320;BME280;4197;42.130;24.746;2023-05-20T11:50:38;99638.53;;;22.64;55.96
8320;BME280;4197;42.130;24.746;2023-05-20T11:53:08;99638.81;;;23.02;55.04
8320;BME280;4197;42.130;24.746;2023-05-20T11:55:44;99643.31;;;22.96;54.29
8320;BME280;4197;42.130;24.746;2023-05-20T11:58:17;99639.84;;;22.92;51.15
8320;BME280;4197;42.130;24.746;2023-05-20T12:00:46;99635.16;;;22.89;51.30
8320;BME280;4197;42.130;24.746;2023-05-20T12:03:22;99631.72;;;23.01;50.00
8320;BME280;4197;42.130;24.746;2023-05-20T12:05:53;99632.94;;;22.67;52.50
8320;BME280;4197;42.130;24.746;2023-05-20T12:08:21;99629.31;;;22.70;53.06
8320;BME280;4197;42.130;24.746;2023-05-20T12:10:49;99628.16;;;22.52;54.48
8320;BME280;4197;42.130;24.746;2023-05-20T12:13:18;99627.91;;;22.46;54.78
8320;BME280;4197;42.130;24.746;2023-05-20T12:15:46;99628.69;;;22.46;54.37
8320;BME280;4197;42.130;24.746;2023-05-20T12:18:14;99630.69;;;22.62;55.24
8320;BME280;4197;42.130;24.746;2023-05-20T12:20:43;99633.78;;;22.97;55.47
8320;BME280;4197;42.130;24.746;2023-05-20T12:23:12;99631.31;;;23.32;54.92
8320;BME280;4197;42.130;24.746;2023-05-20T12:25:41;99620.44;;;23.54;53.34
8320;BME280;4197;42.130;24.746;2023-05-20T12:28:11;99612.13;;;23.25;52.19
8320;BME280;4197;42.130;24.746;2023-05-20T12:30:39;99617.06;;;23.33;55.15
8320;BME280;4197;42.130;24.746;2023-05-20T12:33:07;99611.16;;;23.60;52.77
8320;BME280;4197;42.130;24.746;2023-05-20T12:35:36;99612.97;;;23.67;54.00
8320;BME280;4197;42.130;24.746;2023-05-20T12:38:05;99612.56;;;23.81;52.96
8320;BME280;4197;42.130;24.746;2023-05-20T12:40:35;99602.63;;;24.10;51.71
8320;BME280;4197;42.130;24.746;2023-05-20T12:43:04;99609.72;;;24.23;50.06
8320;BME280;4197;42.130;24.746;2023-05-20T12:45:32;99601.50;;;24.33;50.51
8320;BME280;4197;42.130;24.746;2023-05-20T12:48:01;99599.88;;;24.22;52.04
8320;BME280;4197;42.130;24.746;2023-05-20T12:50:29;99590.13;;;24.18;50.49
8320;BME280;4197;42.130;24.746;2023-05-20T12:52:57;99585.44;;;24.02;49.84
8320;BME280;4197;42.130;24.746;2023-05-20T12:55:25;99577.13;;;23.76;50.35
8320;BME280;4197;42.130;24.746;2023-05-20T12:57:55;99577.75;;;23.68;52.30
8320;BME280;4197;42.130;24.746;2023-05-20T13:00:23;99571.75;;;23.69;51.77
8320;BME280;4197;42.130;24.746;2023-05-20T13:02:51;99566.66;;;23.68;53.58
8320;BME280;4197;42.130;24.746;2023-05-20T13:05:21;99562.06;;;23.90;53.25
8320;BME280;4197;42.130;24.746;2023-05-20T13:07:49;99562.63;;;23.98;52.58
8320;BME280;4197;42.130;24.746;2023-05-20T13:10:18;99555.88;;;24.12;52.16
8320;BME280;4197;42.130;24.746;2023-05-20T13:12:46;99545.88;;;24.40;51.44
8320;BME280;4197;42.130;24.746;2023-05-20T13:15:16;99547.75;;;24.56;50.50
8320;BME280;4197;42.130;24.746;2023-05-20T13:17:44;99546.31;;;24.51;50.08
8320;BME280;4197;42.130;24.746;2023-05-20T13:20:12;99556.44;;;24.07;51.48